Time;durP1;ratioP1;P1;durP2;ratioP2;P2;SDS_P1;SDS_P2;PMS_P1;PMS_P2;Temp;Humidity;BMP_temperature;BMP_pressure;BME280_temperature;BME280_humidity;BME280_pressure;Samples;Min_cycle;Max_cycle;Signal;HPM_P1;HPM_P2
2022/06/29 00:01:08;;;;;;;4.53;3.90;;;15.40;1.00;;;;;;5016559;28;20932;-57
2022/06/29 00:03:35;;;;;;;3.97;3.40;;;15.40;1.00;;;;;;5016863;28;20467;-58
2022/06/29 00:06:05;;;;;;;5.87;3.87;;;15.40;1.00;;;;;;5017188;28;20804;-57
2022/06/29 00:08:36;;;;;;;5.87;3.60;;;15.40;1.00;;;;;;5017124;28;20806;-56
2022/06/29 00:11:03;;;;;;;5.47;3.63;;;15.30;1.00;;;;;;5016853;28;20517;-58
2022/06/29 00:13:33;;;;;;;5.00;4.17;;;15.30;1.00;;;;;;5016640;28;20887;-58
2022/06/29 00:16:01;;;;;;;4.37;3.93;;;15.20;1.00;;;;;;5016949;28;20466;-59
2022/06/29 00:18:31;;;;;;;3.70;3.30;;;15.20;1.00;;;;;;5017273;28;20751;-58
2022/06/29 00:20:58;;;;;;;6.77;3.67;;;15.10;1.00;;;;;;5016497;28;20565;-58
2022/06/29 00:23:25;;;;;;;3.63;3.33;;;15.10;1.00;;;;;;5017178;28;20445;-58
2022/06/29 00:25:57;;;;;;;5.70;3.80;;;15.00;1.00;;;;;;5016605;28;20502;-58
2022/06/29 00:28:24;;;;;;;4.23;3.60;;;14.90;1.00;;;;;;5016600;28;20538;-58
2022/06/29 00:30:52;;;;;;;4.00;3.60;;;14.90;1.00;;;;;;5017356;28;20954;-58
2022/06/29 00:33:19;;;;;;;3.80;3.40;;;14.90;1.00;;;;;;5016869;28;20933;-57
2022/06/29 00:35:46;;;;;;;4.33;3.63;;;14.90;1.00;;;;;;5016889;28;20559;-59
2022/06/29 00:38:15;;;;;;;5.03;3.60;;;14.90;1.00;;;;;;5016852;28;20522;-59
2022/06/29 00:40:42;;;;;;;4.60;3.83;;;14.90;1.00;;;;;;5016884;28;20550;-57
2022/06/29 00:43:14;;;;;;;5.30;3.90;;;14.80;1.00;;;;;;5016517;28;20743;-58
2022/06/29 00:45:42;;;;;;;4.47;4.07;;;14.80;1.00;;;;;;5016633;28;20460;-58
2022/06/29 00:48:12;;;;;;;5.47;3.77;;;14.80;1.00;;;;;;5017420;28;20804;-58
2022/06/29 00:50:43;;;;;;;6.97;4.20;;;14.80;1.00;;;;;;5020686;28;20434;-58
2022/06/29 00:53:14;;;;;;;4.00;3.60;;;14.80;1.00;;;;;;5020572;28;20455;-58
2022/06/29 00:55:45;;;;;;;5.90;4.23;;;14.90;1.00;;;;;;5019983;28;20466;-58
2022/06/29 00:58:20;;;;;;;4.20;3.90;;;14.80;1.00;;;;;;5020031;28;20931;-58
2022/06/29 01:00:48;;;;;;;5.27;3.50;;;14.90;1.00;;;;;;5020152;28;20763;-58
2022/06/29 01:03:15;;;;;;;4.90;4.40;;;14.80;1.00;;;;;;5019949;28;20586;-58
2022/06/29 01:05:44;;;;;;;7.30;4.40;;;14.80;1.00;;;;;;5019877;28;20551;-58
2022/06/29 01:08:15;;;;;;;4.97;4.30;;;14.80;1.00;;;;;;5019929;28;20468;-58
2022/06/29 01:10:46;;;;;;;5.80;4.07;;;14.90;2.70;;;;;;5019180;28;20468;-57
2022/06/29 01:13:19;;;;;;;4.67;4.27;;;15.00;1.00;;;;;;5019734;28;20885;-58
2022/06/29 01:15:48;;;;;;;4.83;4.33;;;15.00;1.00;;;;;;5018829;28;20559;-58
2022/06/29 01:18:15;;;;;;;7.93;4.20;;;15.00;1.00;;;;;;5019539;28;20470;-58
2022/06/29 01:20:44;;;;;;;4.57;4.17;;;15.00;1.00;;;;;;5019779;28;20478;-58
2022/06/29 01:23:12;;;;;;;4.83;4.00;;;15.00;1.00;;;;;;5019473;28;20498;-57
2022/06/29 01:25:41;;;;;;;3.93;3.30;;;14.90;1.00;;;;;;5019535;28;20538;-58
2022/06/29 01:28:23;;;;;;;4.53;4.00;;;14.90;1.00;;;;;;5019635;28;20858;-58
2022/06/29 01:30:59;;;;;;;4.50;4.10;;;15.00;1.00;;;;;;5019200;28;20468;-58
2022/06/29 01:33:27;;;;;;;5.90;3.50;;;15.00;1.00;;;;;;5018608;28;20908;-58
2022/06/29 01:35:54;;;;;;;4.70;4.17;;;15.00;1.00;;;;;;5018630;28;20468;-59
2022/06/29 01:38:25;;;;;;;4.90;3.90;;;15.10;1.00;;;;;;5018817;28;20494;-58
2022/06/29 01:40:52;;;;;;;5.00;4.37;;;15.00;1.00;;;;;;5019059;28;20570;-59
2022/06/29 01:43:19;;;;;;;7.27;4.50;;;15.00;1.00;;;;;;5018832;28;20523;-58
2022/06/29 01:45:46;;;;;;;4.90;4.10;;;15.10;1.00;;;;;;5018853;28;20764;-57
2022/06/29 01:48:16;;;;;;;4.77;4.27;;;15.10;1.00;;;;;;5019404;28;20495;-58
2022/06/29 01:50:46;;;;;;;5.67;4.00;;;15.10;1.00;;;;;;5019247;28;20471;-58
2022/06/29 01:53:13;;;;;;;5.90;4.27;;;15.10;1.00;;;;;;5018921;28;20827;-59
2022/06/29 01:55:46;;;;;;;5.63;4.37;;;15.10;1.00;;;;;;5018778;28;20971;-56
2022/06/29 01:58:13;;;;;;;5.30;4.60;;;15.10;1.00;;;;;;5018877;28;20982;-57
2022/06/29 02:00:40;;;;;;;5.13;4.30;;;15.10;1.00;;;;;;5018316;28;20539;-58
2022/06/29 02:03:08;;;;;;;6.13;4.00;;;15.10;1.00;;;;;;5018510;28;20466;-58
2022/06/29 02:05:36;;;;;;;4.70;4.30;;;15.10;1.00;;;;;;5018638;28;20476;-58
2022/06/29 02:08:07;;;;;;;4.13;3.80;;;15.10;1.00;;;;;;5018993;28;20566;-57
2022/06/29 02:10:38;;;;;;;5.20;4.20;;;15.10;1.00;;;;;;5019228;28;20851;-58
2022/06/29 02:13:07;;;;;;;4.17;3.77;;;15.10;1.00;;;;;;5019095;28;20456;-58
2022/06/29 02:15:36;;;;;;;4.93;4.43;;;15.10;1.00;;;;;;5018152;28;20464;-58
2022/06/29 02:18:07;;;;;;;4.57;4.17;;;15.00;1.00;;;;;;5018570;28;20468;-58
2022/06/29 02:20:42;;;;;;;4.73;4.10;;;15.00;1.00;;;;;;5018907;28;20463;-58
2022/06/29 02:23:12;;;;;;;4.40;3.43;;;15.00;1.00;;;;;;5018351;28;20492;-59
2022/06/29 02:25:39;;;;;;;5.50;4.50;;;14.90;1.00;;;;;;5018396;28;20566;-58
2022/06/29 02:28:08;;;;;;;5.70;3.93;;;14.90;1.00;;;;;;5018541;28;20575;-58
2022/06/29 02:36:10;;;;;;;5.17;3.80;;;14.70;1.00;;;;;;5036365;28;20438;-59
2022/06/29 02:38:39;;;;;;;4.83;4.27;;;14.70;1.00;;;;;;5037063;28;20740;-59
2022/06/29 02:41:06;;;;;;;11.50;4.73;;;14.70;5.90;;;;;;5036543;28;20521;-58
2022/06/29 02:43:35;;;;;;;6.73;4.13;;;14.70;1.00;;;;;;5037053;28;20526;-59
2022/06/29 02:46:05;;;;;;;4.80;4.30;;;14.70;1.00;;;;;;5037171;28;20520;-58
2022/06/29 02:48:34;;;;;;;5.23;4.43;;;14.70;1.00;;;;;;5037935;28;20581;-58
2022/06/29 02:51:01;;;;;;;4.63;3.73;;;14.60;1.00;;;;;;5037593;28;20467;-58
2022/06/29 02:53:28;;;;;;;4.40;4.00;;;14.60;15.50;;;;;;5036979;28;20557;-58
2022/06/29 02:55:55;;;;;;;4.90;4.40;;;14.70;1.00;;;;;;5035985;28;20463;-58
2022/06/29 02:58:26;;;;;;;6.00;4.30;;;14.60;1.00;;;;;;5035959;28;20873;-58
2022/06/29 03:00:57;;;;;;;4.60;3.83;;;14.60;1.00;;;;;;5037287;28;20802;-57
2022/06/29 03:03:24;;;;;;;5.07;4.10;;;14.60;44.50;;;;;;5037422;28;20757;-55
2022/06/29 03:05:51;;;;;;;5.77;4.73;;;14.60;88.50;;;;;;5037670;28;20557;-58
2022/06/29 03:08:21;;;;;;;5.17;4.10;;;14.60;97.70;;;;;;5037541;28;20466;-57
2022/06/29 03:10:49;;;;;;;5.63;4.07;;;14.60;75.80;;;;;;5035068;28;20536;-58
2022/06/29 03:13:23;;;;;;;6.53;4.57;;;14.60;10.40;;;;;;5052486;28;20863;-58
2022/06/29 03:15:52;;;;;;;5.77;3.73;;;14.70;1.00;;;;;;5057010;28;20443;-57
2022/06/29 03:18:20;;;;;;;4.53;3.97;;;14.70;1.00;;;;;;5057573;28;20437;-57
2022/06/29 03:20:47;;;;;;;5.07;4.23;;;14.70;1.00;;;;;;5057373;28;20950;-56
2022/06/29 03:23:15;;;;;;;4.53;4.13;;;14.70;1.00;;;;;;5057260;28;20498;-58
2022/06/29 03:25:43;;;;;;;4.50;4.10;;;14.70;1.00;;;;;;5044823;28;20442;-57
2022/06/29 03:28:12;;;;;;;6.40;5.00;;;14.70;1.00;;;;;;5028835;28;20480;-58
2022/06/29 03:30:40;;;;;;;4.73;3.67;;;14.60;1.00;;;;;;5057199;28;20480;-57
2022/06/29 03:33:07;;;;;;;5.93;5.03;;;14.60;1.00;;;;;;5056712;28;20527;-58
2022/06/29 03:35:36;;;;;;;4.50;4.10;;;14.60;1.00;;;;;;5056983;28;20532;-58
2022/06/29 03:38:03;;;;;;;4.37;3.97;;;14.60;1.00;;;;;;5057058;28;20965;-58
2022/06/29 03:40:31;;;;;;;5.50;4.30;;;14.50;1.00;;;;;;5057094;28;20462;-58
2022/06/29 03:42:58;;;;;;;8.60;4.30;;;14.50;1.00;;;;;;5056996;28;20526;-58
2022/06/29 03:45:27;;;;;;;5.23;3.97;;;14.60;1.00;;;;;;5056967;28;20560;-59
2022/06/29 03:48:01;;;;;;;4.77;4.27;;;14.50;1.00;;;;;;5057051;28;20789;-59
2022/06/29 03:50:29;;;;;;;4.33;3.87;;;14.50;1.00;;;;;;5057054;28;20535;-58
2022/06/29 03:52:58;;;;;;;5.20;4.70;;;14.50;1.00;;;;;;5056785;28;20535;-59
2022/06/29 03:55:25;;;;;;;4.83;3.80;;;14.50;1.00;;;;;;5056896;28;20466;-58
2022/06/29 03:57:52;;;;;;;4.17;3.30;;;14.50;2.60;;;;;;5056638;28;20591;-57
2022/06/29 04:00:26;;;;;;;6.10;4.20;;;14.40;1.00;;;;;;5057022;28;20519;-58
2022/06/29 04:02:54;;;;;;;4.90;4.40;;;14.40;1.00;;;;;;5056685;28;20518;-58
2022/06/29 04:05:21;;;;;;;3.80;3.50;;;14.50;1.00;;;;;;5056768;28;20529;-58
2022/06/29 04:07:57;;;;;;;5.23;4.83;;;14.50;1.00;;;;;;5056850;28;20463;-58
2022/06/29 04:10:26;;;;;;;6.03;4.30;;;14.50;1.00;;;;;;5056744;28;20903;-58
2022/06/29 04:12:56;;;;;;;6.37;4.03;;;14.60;1.00;;;;;;5057177;28;20454;-58
2022/06/29 04:15:23;;;;;;;4.67;4.27;;;14.60;1.00;;;;;;5056444;28;20561;-58
2022/06/29 04:17:50;;;;;;;8.10;5.07;;;14.60;1.00;;;;;;5056663;28;20436;-58
2022/06/29 04:23:04;;;;;;;6.83;5.03;;;14.70;1.00;;;;;;5057355;28;20478;-58
2022/06/29 04:25:33;;;;;;;6.50;4.57;;;14.70;1.00;;;;;;5060217;28;20561;-58
2022/06/29 04:28:00;;;;;;;5.27;4.77;;;14.80;1.00;;;;;;5060768;28;20544;-58
2022/06/29 04:30:31;;;;;;;5.60;4.40;;;14.90;1.00;;;;;;5060538;28;20493;-58
2022/06/29 04:32:58;;;;;;;4.90;4.40;;;14.90;1.00;;;;;;5060332;28;20463;-58
2022/06/29 04:35:26;;;;;;;5.73;5.23;;;15.10;1.00;;;;;;5060136;28;20469;-58
2022/06/29 04:37:53;;;;;;;6.07;5.13;;;15.10;1.00;;;;;;5060235;28;20890;-58
2022/06/29 04:40:20;;;;;;;6.73;4.77;;;15.10;1.00;;;;;;5060546;28;20461;-58
2022/06/29 04:42:50;;;;;;;5.07;4.57;;;15.20;1.00;;;;;;5060331;28;21033;-56
2022/06/29 04:48:06;;;;;;;6.27;4.60;;;15.30;1.00;;;;;;5059868;28;20522;-56
2022/06/29 04:50:33;;;;;;;5.50;5.00;;;15.30;1.00;;;;;;5060020;28;20576;-58
2022/06/29 04:53:01;;;;;;;6.87;5.37;;;15.40;1.00;;;;;;5059808;28;20498;-58
2022/06/29 04:55:29;;;;;;;5.90;4.93;;;15.40;1.00;;;;;;5055315;28;20550;-58
2022/06/29 04:57:58;;;;;;;4.83;4.33;;;15.50;1.00;;;;;;5050342;28;20457;-58
2022/06/29 05:00:25;;;;;;;5.20;4.70;;;15.70;1.00;;;;;;5047595;28;20467;-58
2022/06/29 05:02:53;;;;;;;4.67;4.17;;;15.80;1.00;;;;;;5031830;28;20523;-59
2022/06/29 05:05:20;;;;;;;7.17;4.37;;;15.90;1.00;;;;;;5039610;28;20463;-58
2022/06/29 05:07:48;;;;;;;4.53;4.07;;;16.10;1.00;;;;;;5038869;28;20477;-59
2022/06/29 05:10:20;;;;;;;5.50;4.20;;;16.10;1.00;;;;;;5039910;28;20474;-58
2022/06/29 05:12:48;;;;;;;4.60;4.20;;;16.10;1.00;;;;;;5039820;28;20434;-58
2022/06/29 05:15:16;;;;;;;5.63;4.60;;;16.10;99.90;;;;;;5038424;28;20561;-58
2022/06/29 05:17:45;;;;;;;4.57;3.93;;;16.10;1.00;;;;;;5037892;28;20554;-58
2022/06/29 05:20:15;;;;;;;5.63;4.40;;;16.20;1.00;;;;;;5039411;28;20758;-59
2022/06/29 05:22:45;;;;;;;5.47;3.90;;;16.20;1.00;;;;;;5033345;28;20578;-59
2022/06/29 05:25:13;;;;;;;5.67;4.20;;;16.10;99.90;;;;;;5038668;28;20561;-59
2022/06/29 05:27:40;;;;;;;4.97;4.47;;;16.30;1.00;;;;;;5038786;28;20465;-59
2022/06/29 05:30:09;;;;;;;4.47;4.07;;;16.40;99.90;;;;;;5035602;28;20473;-59
2022/06/29 05:32:38;;;;;;;5.63;4.40;;;16.60;99.90;;;;;;5032808;28;20435;-59
2022/06/29 05:35:08;;;;;;;5.13;4.57;;;16.70;1.00;;;;;;5037402;28;20756;-58
2022/06/29 05:37:35;;;;;;;4.80;4.30;;;16.80;99.90;;;;;;5039300;28;20464;-58
2022/06/29 05:40:07;;;;;;;4.17;3.40;;;16.90;99.90;;;;;;5039437;28;20553;-58
2022/06/29 05:42:35;;;;;;;6.37;4.87;;;16.90;99.90;;;;;;5038594;28;20459;-58
2022/06/29 05:45:02;;;;;;;8.80;5.00;;;17.00;99.90;;;;;;5046396;28;20996;-56
2022/06/29 05:47:29;;;;;;;7.00;4.00;;;17.10;99.90;;;;;;5033261;28;20537;-59
2022/06/29 05:50:00;;;;;;;4.30;3.97;;;17.10;99.90;;;;;;5036035;28;20561;-59
2022/06/29 05:52:28;;;;;;;5.60;3.77;;;17.00;99.90;;;;;;5034376;28;20574;-58
2022/06/29 05:54:57;;;;;;;4.87;4.37;;;17.00;99.90;;;;;;5031175;28;20546;-58
2022/06/29 05:57:24;;;;;;;5.13;4.10;;;17.10;99.90;;;;;;5024327;28;20486;-59
2022/06/29 05:59:52;;;;;;;4.87;4.07;;;17.20;99.90;;;;;;5023164;28;20562;-59
2022/06/29 06:02:22;;;;;;;4.40;4.03;;;17.40;99.90;;;;;;5019128;28;20554;-58
2022/06/29 06:04:53;;;;;;;4.67;4.20;;;17.50;99.90;;;;;;5027535;28;20609;-58
2022/06/29 06:07:22;;;;;;;4.30;3.90;;;17.60;99.90;;;;;;5021405;28;20471;-59
2022/06/29 06:09:51;;;;;;;7.07;5.10;;;17.80;99.90;;;;;;5038766;28;20570;-58
2022/06/29 06:12:20;;;;;;;4.10;3.70;;;17.90;99.90;;;;;;5038539;28;20506;-58
2022/06/29 06:14:47;;;;;;;5.17;4.67;;;18.10;99.90;;;;;;5038298;28;20505;-59
2022/06/29 06:17:16;;;;;;;14.13;4.03;;;18.20;99.90;;;;;;5038125;28;20464;-58
2022/06/29 06:19:43;;;;;;;5.70;4.00;;;18.30;99.90;;;;;;5031690;28;20474;-58
2022/06/29 06:22:11;;;;;;;4.53;3.40;;;18.40;99.90;;;;;;5031928;28;20741;-59
2022/06/29 06:24:40;;;;;;;4.00;3.60;;;18.50;99.90;;;;;;5036009;28;20499;-59
2022/06/29 06:27:09;;;;;;;8.77;4.63;;;18.60;99.90;;;;;;5035662;28;20467;-59
2022/06/29 06:29:36;;;;;;;8.27;4.30;;;18.60;99.90;;;;;;5035042;28;20566;-59
2022/06/29 06:32:04;;;;;;;5.07;4.57;;;18.60;99.90;;;;;;5042670;28;20466;-59
2022/06/29 06:34:34;;;;;;;4.37;3.97;;;18.70;99.90;;;;;;5044361;28;20456;-59
2022/06/29 06:37:02;;;;;;;3.90;3.50;;;18.70;99.90;;;;;;5041848;28;20450;-61
2022/06/29 06:39:29;;;;;;;4.23;3.83;;;18.70;99.90;;;;;;5044851;28;20461;-61
2022/06/29 06:41:57;;;;;;;4.10;3.80;;;18.80;99.90;;;;;;5044474;28;21747;-60
2022/06/29 06:44:24;;;;;;;4.17;3.77;;;18.90;99.90;;;;;;5042380;28;20486;-61
2022/06/29 06:46:51;;;;;;;4.47;3.87;;;19.00;99.90;;;;;;5040986;28;20463;-61
2022/06/29 06:49:22;;;;;;;5.60;4.30;;;19.00;99.90;;;;;;5040479;28;20458;-61
2022/06/29 06:51:52;;;;;;;4.60;4.20;;;19.10;99.90;;;;;;5043642;28;20474;-61
2022/06/29 06:54:19;;;;;;;5.53;4.80;;;19.20;99.90;;;;;;5040882;28;20468;-61
2022/06/29 06:56:47;;;;;;;5.63;4.97;;;19.40;99.90;;;;;;5041489;28;20491;-61
2022/06/29 06:59:16;;;;;;;5.30;4.37;;;19.40;99.90;;;;;;5044959;28;20557;-61
2022/06/29 07:01:45;;;;;;;5.00;4.50;;;19.50;99.90;;;;;;5040345;28;20443;-61
2022/06/29 07:04:13;;;;;;;4.50;4.07;;;19.40;99.90;;;;;;5043291;28;20545;-61
2022/06/29 07:06:43;;;;;;;6.23;4.40;;;19.50;99.90;;;;;;5041970;28;20933;-61
2022/06/29 07:09:12;;;;;;;5.77;4.73;;;19.60;99.90;;;;;;5044477;28;20450;-61
2022/06/29 07:11:39;;;;;;;5.40;4.23;;;19.60;99.90;;;;;;5045569;28;20455;-61
2022/06/29 07:14:06;;;;;;;6.10;4.67;;;19.70;99.90;;;;;;5043946;28;20454;-61
2022/06/29 07:16:35;;;;;;;5.30;4.80;;;19.80;99.90;;;;;;5042408;28;20554;-62
2022/06/29 07:19:02;;;;;;;5.73;4.37;;;19.70;99.90;;;;;;5035781;28;20557;-62
2022/06/29 07:21:35;;;;;;;4.00;3.60;;;19.90;99.90;;;;;;5035611;28;20895;-61
2022/06/29 07:24:05;;;;;;;4.80;4.20;;;20.20;99.90;;;;;;5036899;28;20487;-62
2022/06/29 07:26:32;;;;;;;4.27;3.77;;;20.30;99.90;;;;;;5036618;28;20859;-62
2022/06/29 07:29:02;;;;;;;4.40;4.00;;;19.90;99.90;;;;;;5033694;28;20853;-62
2022/06/29 07:31:35;;;;;;;5.17;3.80;;;19.80;99.90;;;;;;5029242;28;20546;-62
2022/06/29 07:34:04;;;;;;;4.93;4.50;;;19.80;99.90;;;;;;5036553;28;20541;-61
2022/06/29 07:36:31;;;;;;;7.60;3.87;;;19.90;99.90;;;;;;5032445;28;20558;-62
2022/06/29 07:38:59;;;;;;;5.00;4.57;;;20.10;99.90;;;;;;5036510;28;20451;-62
2022/06/29 07:41:29;;;;;;;5.83;5.10;;;20.00;99.90;;;;;;5042540;28;20937;-62
2022/06/29 07:43:57;;;;;;;5.90;3.90;;;20.30;99.90;;;;;;5043872;28;20949;-62
2022/06/29 07:46:24;;;;;;;6.00;4.40;;;20.40;99.90;;;;;;5041254;28;20521;-62
2022/06/29 07:48:54;;;;;;;4.60;4.20;;;20.50;99.90;;;;;;5044424;28;20744;-62
2022/06/29 07:51:22;;;;;;;5.17;4.27;;;20.70;99.90;;;;;;5043860;28;20457;-62
2022/06/29 07:53:49;;;;;;;4.30;3.83;;;20.70;99.90;;;;;;5043032;28;20495;-62
2022/06/29 07:56:17;;;;;;;4.13;3.60;;;20.70;99.90;;;;;;5036326;28;20485;-62
2022/06/29 07:58:45;;;;;;;5.47;3.83;;;20.70;99.90;;;;;;5042062;28;20535;-62
2022/06/29 08:01:15;;;;;;;5.53;4.30;;;20.80;99.90;;;;;;5047470;28;20469;-62
2022/06/29 08:03:42;;;;;;;7.87;4.30;;;20.80;99.90;;;;;;5042604;28;20494;-62
2022/06/29 08:06:11;;;;;;;5.63;5.00;;;20.50;99.90;;;;;;5050283;28;20968;-62
2022/06/29 08:08:38;;;;;;;6.50;4.90;;;20.60;99.90;;;;;;5049295;28;20890;-62
2022/06/29 08:11:06;;;;;;;4.83;4.13;;;20.70;99.90;;;;;;5049455;28;20809;-62
2022/06/29 08:13:38;;;;;;;7.33;4.10;;;20.70;99.90;;;;;;5048598;28;20479;-62
2022/06/29 08:16:08;;;;;;;5.30;4.37;;;20.70;99.90;;;;;;5040064;28;20875;-62
2022/06/29 08:18:35;;;;;;;10.73;4.57;;;20.70;99.90;;;;;;5039323;28;20432;-61
2022/06/29 08:21:10;;;;;;;4.77;4.37;;;20.80;99.90;;;;;;5044344;28;20542;-62
2022/06/29 08:23:37;;;;;;;4.47;4.07;;;21.00;99.90;;;;;;5041378;28;20931;-62
2022/06/29 08:26:05;;;;;;;4.23;3.90;;;21.10;99.90;;;;;;5041217;28;20466;-62
2022/06/29 08:28:38;;;;;;;4.67;4.27;;;21.20;99.90;;;;;;5043587;28;20533;-62
2022/06/29 08:31:09;;;;;;;6.10;5.50;;;21.30;99.90;;;;;;5044738;28;20538;-62
2022/06/29 08:33:36;;;;;;;5.63;5.13;;;21.20;99.90;;;;;;5048938;28;20524;-62
2022/06/29 08:36:04;;;;;;;5.87;5.30;;;21.30;99.90;;;;;;5044053;28;20550;-62
2022/06/29 08:38:33;;;;;;;5.20;4.70;;;21.20;99.90;;;;;;5039378;28;20459;-62
2022/06/29 08:41:02;;;;;;;6.00;4.70;;;21.30;99.90;;;;;;5040111;28;20541;-62
2022/06/29 08:43:32;;;;;;;5.13;4.63;;;21.30;99.90;;;;;;5019886;28;20470;-62
2022/06/29 08:46:05;;;;;;;4.37;4.00;;;21.20;99.90;;;;;;5027817;28;20458;-62
2022/06/29 08:48:32;;;;;;;5.87;5.30;;;21.20;99.90;;;;;;5039752;28;20569;-62
2022/06/29 08:51:00;;;;;;;5.00;4.60;;;21.30;99.90;;;;;;5039569;28;20456;-62
2022/06/29 08:53:34;;;;;;;4.73;4.37;;;21.40;99.90;;;;;;5023318;28;20433;-62
2022/06/29 08:56:04;;;;;;;5.87;4.90;;;21.50;99.90;;;;;;5039862;28;20554;-62
2022/06/29 08:58:35;;;;;;;4.93;4.43;;;21.50;99.90;;;;;;5039014;28;20552;-62
2022/06/29 09:01:02;;;;;;;5.27;4.77;;;21.50;99.90;;;;;;5038840;28;20741;-62
2022/06/29 09:03:29;;;;;;;6.23;4.97;;;21.50;99.90;;;;;;5038848;28;20505;-62
2022/06/29 09:06:01;;;;;;;4.37;3.97;;;21.60;99.90;;;;;;5038610;28;20494;-62
2022/06/29 09:08:36;;;;;;;5.40;4.30;;;21.70;99.90;;;;;;5037887;28;20498;-62
2022/06/29 09:11:22;;;;;;;4.73;4.33;;;21.80;99.90;;;;;;5038068;28;20470;-62
2022/06/29 09:14:08;;;;;;;4.73;4.30;;;21.90;99.90;;;;;;5039484;28;20922;-62
2022/06/29 09:17:02;;;;;;;6.00;4.60;;;22.00;99.90;;;;;;5038307;28;20465;-62
2022/06/29 09:19:42;;;;;;;5.00;4.47;;;22.10;99.90;;;;;;5038502;28;20471;-62
2022/06/29 09:22:13;;;;;;;5.00;4.60;;;22.20;99.90;;;;;;5038883;28;20470;-61
2022/06/29 09:24:42;;;;;;;5.40;4.90;;;22.20;99.90;;;;;;5039248;28;20491;-62
2022/06/29 09:27:11;;;;;;;6.80;4.30;;;22.30;99.90;;;;;;5040367;28;20473;-62
2022/06/29 09:29:43;;;;;;;5.03;4.63;;;22.40;99.90;;;;;;5037068;28;20446;-62
2022/06/29 09:32:14;;;;;;;5.23;4.30;;;22.40;99.90;;;;;;5040507;28;20512;-62
2022/06/29 09:34:46;;;;;;;4.93;4.53;;;22.30;99.90;;;;;;5039096;28;20459;-62
2022/06/29 09:37:17;;;;;;;5.90;4.10;;;22.40;99.90;;;;;;5039736;28;20444;-62
2022/06/29 09:39:47;;;;;;;4.90;4.50;;;22.40;99.90;;;;;;5040637;28;20633;-62
2022/06/29 09:42:17;;;;;;;4.67;4.27;;;22.40;99.90;;;;;;5038441;28;20774;-62
2022/06/29 09:44:45;;;;;;;4.90;4.60;;;22.20;99.90;;;;;;5038954;28;21006;-62
2022/06/29 09:47:15;;;;;;;5.00;4.57;;;22.30;99.90;;;;;;5037556;28;20578;-62
2022/06/29 09:49:47;;;;;;;5.33;4.63;;;22.20;99.90;;;;;;5037300;28;20523;-62
2022/06/29 09:52:17;;;;;;;5.13;4.63;;;22.20;99.90;;;;;;5038136;28;20525;-62
2022/06/29 09:54:52;;;;;;;6.90;4.37;;;22.30;99.90;;;;;;5037775;28;20457;-62
2022/06/29 09:57:22;;;;;;;4.63;4.33;;;22.40;99.90;;;;;;5035708;28;20520;-62
2022/06/29 10:02:42;;;;;;;5.20;4.70;;;22.50;99.90;;;;;;5038749;28;20449;-62
2022/06/29 10:05:22;;;;;;;6.30;4.50;;;22.50;99.90;;;;;;5038186;28;20503;-62
2022/06/29 10:07:53;;;;;;;4.20;3.90;;;22.50;99.90;;;;;;5038618;28;20453;-62
2022/06/29 10:10:25;;;;;;;7.03;5.17;;;22.20;99.90;;;;;;5038997;28;20525;-62
2022/06/29 10:16:16;;;;;;;6.40;5.90;;;22.30;99.90;;;;;;5036630;28;20430;-62
2022/06/29 10:19:08;;;;;;;6.07;5.57;;;22.40;99.90;;;;;;5037434;28;20465;-62
2022/06/29 10:21:41;;;;;;;5.60;5.17;;;22.50;99.90;;;;;;5037965;28;20455;-62
2022/06/29 10:24:09;;;;;;;4.93;4.50;;;22.70;99.90;;;;;;5038325;28;20491;-62
2022/06/29 10:26:52;;;;;;;5.80;5.30;;;22.70;99.90;;;;;;5037731;28;20498;-62
2022/06/29 10:29:33;;;;;;;5.37;4.87;;;22.80;99.90;;;;;;5041998;28;20462;-62
2022/06/29 10:32:19;;;;;;;6.27;4.80;;;23.20;99.90;;;;;;5042200;28;20437;-62
2022/06/29 10:37:46;;;;;;;5.57;4.77;;;23.70;99.90;;;;;;5046686;28;20426;-62
2022/06/29 10:40:19;;;;;;;5.10;4.70;;;24.10;99.90;;;;;;5046607;28;20846;-62
2022/06/29 10:43:18;;;;;;;5.30;4.90;;;24.50;99.90;;;;;;5044764;28;20775;-62
2022/06/29 10:45:57;;;;;;;5.70;5.20;;;24.70;99.90;;;;;;5044529;28;20518;-62
2022/06/29 10:48:29;;;;;;;5.73;5.23;;;24.90;99.90;;;;;;5044388;28;20459;-62
2022/06/29 10:50:58;;;;;;;4.97;4.47;;;24.90;99.90;;;;;;5042996;28;20463;-62
2022/06/29 10:53:27;;;;;;;5.43;4.90;;;25.20;99.90;;;;;;5044502;28;20455;-62
2022/06/29 10:55:56;;;;;;;5.70;5.20;;;25.30;99.90;;;;;;5045681;28;20904;-62
2022/06/29 10:58:26;;;;;;;5.53;5.07;;;25.30;99.90;;;;;;5055490;28;20517;-62
2022/06/29 11:00:57;;;;;;;4.53;4.13;;;25.30;99.90;;;;;;5056340;28;20462;-62
2022/06/29 11:03:27;;;;;;;5.33;4.93;;;25.40;99.90;;;;;;5057113;28;20466;-62
2022/06/29 11:12:04;;;;;;;5.83;5.33;;;25.60;99.90;;;;;;5056108;28;20429;-62
2022/06/29 11:20:21;;;;;;;5.93;5.50;;;25.60;99.90;;;;;;5022057;28;20897;-63
2022/06/29 11:22:56;;;;;;;5.87;5.47;;;25.80;99.90;;;;;;5037018;28;20465;-63
2022/06/29 11:25:25;;;;;;;6.83;5.47;;;25.80;99.90;;;;;;5039444;28;20518;-63
2022/06/29 11:27:55;;;;;;;6.50;5.90;;;25.60;99.90;;;;;;5037536;28;20807;-63
2022/06/29 11:30:24;;;;;;;6.03;5.50;;;25.50;99.90;;;;;;5037277;28;20569;-63
2022/06/29 11:32:57;;;;;;;5.30;4.90;;;25.30;99.90;;;;;;5037037;28;20505;-63
2022/06/29 11:35:34;;;;;;;7.10;5.23;;;25.10;99.90;;;;;;5036914;28;20459;-62
2022/06/29 11:38:04;;;;;;;5.40;5.00;;;25.00;99.90;;;;;;5037111;28;20858;-63
2022/06/29 11:40:34;;;;;;;5.37;4.93;;;24.80;99.90;;;;;;5036998;28;20473;-63
2022/06/29 11:43:04;;;;;;;5.70;5.20;;;24.80;99.90;;;;;;5036976;28;20474;-63
2022/06/29 11:45:43;;;;;;;5.93;4.30;;;24.70;99.90;;;;;;5037084;28;20473;-63
2022/06/29 11:48:16;;;;;;;5.60;5.13;;;24.80;99.90;;;;;;5037075;28;20952;-63
2022/06/29 11:50:46;;;;;;;6.53;4.90;;;24.80;99.90;;;;;;5044431;28;20469;-63
2022/06/29 11:53:40;;;;;;;6.00;5.50;;;24.70;99.90;;;;;;5045474;28;20459;-63
2022/06/29 11:56:11;;;;;;;5.70;5.30;;;24.70;99.90;;;;;;5042186;28;20458;-63
2022/06/29 11:58:44;;;;;;;5.57;5.07;;;24.70;99.90;;;;;;5044328;28;20479;-63
2022/06/29 12:01:26;;;;;;;5.83;5.43;;;24.90;99.90;;;;;;5044497;28;20461;-63
2022/06/29 12:03:55;;;;;;;5.97;5.47;;;24.80;99.90;;;;;;5044620;28;20475;-63
2022/06/29 12:06:24;;;;;;;5.70;5.20;;;24.60;99.90;;;;;;5042464;28;20880;-63
2022/06/29 12:08:53;;;;;;;6.33;5.87;;;24.30;99.90;;;;;;5037027;28;20826;-63
2022/06/29 12:11:21;;;;;;;6.00;5.50;;;24.20;99.90;;;;;;5036576;28;20463;-63
2022/06/29 12:13:52;;;;;;;6.50;5.87;;;24.20;99.90;;;;;;5036476;28;20467;-63
2022/06/29 12:16:22;;;;;;;5.70;5.20;;;24.20;99.90;;;;;;5036644;28;20942;-63
2022/06/29 12:18:50;;;;;;;6.20;5.60;;;24.30;99.90;;;;;;5036600;28;20459;-63
2022/06/29 12:21:17;;;;;;;7.50;5.50;;;24.40;99.90;;;;;;5041274;28;20490;-63
2022/06/29 12:23:45;;;;;;;6.17;5.57;;;24.50;99.90;;;;;;5035700;28;20911;-63
2022/06/29 12:26:14;;;;;;;6.63;6.13;;;24.80;99.90;;;;;;5036565;28;20585;-64
2022/06/29 12:28:44;;;;;;;5.93;5.43;;;25.00;99.90;;;;;;5035264;28;20467;-63
2022/06/29 12:31:11;;;;;;;7.77;6.97;;;25.80;99.90;;;;;;5036140;28;20764;-63
2022/06/29 12:33:41;;;;;;;7.40;5.70;;;26.50;99.90;;;;;;5036162;28;20553;-63
2022/06/29 12:36:09;;;;;;;6.87;6.20;;;27.30;99.90;;;;;;5036061;28;20498;-63
2022/06/29 12:38:36;;;;;;;6.57;6.13;;;27.90;99.90;;;;;;5035569;28;20466;-63
2022/06/29 12:41:03;;;;;;;6.73;6.23;;;27.90;99.90;;;;;;5035986;28;20554;-63
2022/06/29 12:43:33;;;;;;;8.60;5.70;;;27.90;99.90;;;;;;5037784;28;20946;-63
2022/06/29 12:46:03;;;;;;;5.67;5.27;;;27.90;99.90;;;;;;5042005;28;20504;-63
2022/06/29 12:48:34;;;;;;;5.90;5.40;;;28.50;99.90;;;;;;5038670;28;20552;-63
2022/06/29 12:51:05;;;;;;;7.00;6.50;;;29.30;99.90;;;;;;5038297;28;20569;-62
2022/06/29 12:53:33;;;;;;;5.77;5.07;;;30.00;99.90;;;;;;5039530;28;20562;-63
2022/06/29 12:56:03;;;;;;;7.83;5.33;;;30.50;99.90;;;;;;5039307;28;20858;-63
2022/06/29 12:58:33;;;;;;;11.20;7.20;;;31.10;99.90;;;;;;5039610;28;20491;-63
2022/06/29 13:01:00;;;;;;;7.00;6.40;;;31.00;99.90;;;;;;5038679;28;20573;-63
2022/06/29 13:03:28;;;;;;;9.10;6.00;;;30.80;99.90;;;;;;5039781;28;20875;-60
2022/06/29 13:06:01;;;;;;;6.27;5.37;;;31.70;99.90;;;;;;5037738;28;20501;-61
2022/06/29 13:08:30;;;;;;;5.73;4.90;;;31.80;99.90;;;;;;5038777;28;20467;-61
2022/06/29 13:10:59;;;;;;;6.07;5.67;;;32.30;99.90;;;;;;5038174;28;20951;-61
2022/06/29 13:13:27;;;;;;;6.27;5.87;;;31.90;99.90;;;;;;5039475;28;20795;-60
2022/06/29 13:15:59;;;;;;;5.67;5.20;;;31.80;99.90;;;;;;5039126;28;20771;-61
2022/06/29 13:18:27;;;;;;;4.77;4.47;;;31.80;99.90;;;;;;5039164;28;20532;-61
2022/06/29 13:20:56;;;;;;;6.53;5.60;;;31.80;99.90;;;;;;5041593;28;20579;-61
2022/06/29 13:23:24;;;;;;;5.50;5.03;;;31.90;99.90;;;;;;5039165;28;20565;-61
2022/06/29 13:25:52;;;;;;;6.50;5.90;;;31.70;99.90;;;;;;5038251;28;21012;-61
2022/06/29 13:28:19;;;;;;;4.80;4.40;;;31.50;99.90;;;;;;5039366;28;20561;-61
2022/06/29 13:30:47;;;;;;;5.03;4.57;;;31.40;99.90;;;;;;5036410;28;20517;-61
2022/06/29 13:33:14;;;;;;;6.20;5.70;;;31.30;99.90;;;;;;5042309;28;20549;-61
2022/06/29 13:35:44;;;;;;;6.30;5.80;;;31.80;99.90;;;;;;5049334;28;20881;-62